sensor_id;sensor_type;location;lat;lon;timestamp;pressure;altitude;pressure_sealevel;temperature;humidity
3132;BME280;62090;52.330;9.104;2023-01-08T00:00:07;99910.97;;;9.56;94.49
3132;BME280;62090;52.330;9.104;2023-01-08T00:02:42;99830.66;;;9.13;95.10
3132;BME280;62090;52.330;9.104;2023-01-08T00:05:19;99965.09;;;10.05;95.11
3132;BME280;62090;52.330;9.104;2023-01-08T00:07:52;99971.03;;;10.05;94.80
3132;BME280;62090;52.330;9.104;2023-01-08T00:10:24;99949.66;;;9.94;94.54
3132;BME280;62090;52.330;9.104;2023-01-08T00:12:54;99792.25;;;8.95;94.48
3132;BME280;62090;52.330;9.104;2023-01-08T00:15:23;99950.59;;;10.01;94.65
3132;BME280;62090;52.330;9.104;2023-01-08T00:17:56;99939.72;;;10.11;94.10
3132;BME280;62090;52.330;9.104;2023-01-08T00:20:26;99944.13;;;10.20;93.75
3132;BME280;62090;52.330;9.104;2023-01-08T00:22:56;99926.81;;;9.97;93.65
3132;BME280;62090;52.330;9.104;2023-01-08T00:25:26;99931.94;;;10.00;93.30
3132;BME280;62090;52.330;9.104;2023-01-08T00:27:55;99941.53;;;10.16;93.25
3132;BME280;62090;52.330;9.104;2023-01-08T00:30:25;99942.41;;;10.19;93.01
3132;BME280;62090;52.330;9.104;2023-01-08T00:32:57;99950.78;;;10.13;93.07
3132;BME280;62090;52.330;9.104;2023-01-08T00:35:27;99886.63;;;9.75;92.98
3132;BME280;62090;52.330;9.104;2023-01-08T00:37:57;99935.47;;;10.11;93.29
3132;BME280;62090;52.330;9.104;2023-01-08T00:40:26;99954.28;;;10.18;92.84
3132;BME280;62090;52.330;9.104;2023-01-08T00:42:56;99950.09;;;10.23;92.54
3132;BME280;62090;52.330;9.104;2023-01-08T00:45:26;99949.22;;;10.20;92.59
3132;BME280;62090;52.330;9.104;2023-01-08T00:47:58;99947.50;;;10.19;93.00
3132;BME280;62090;52.330;9.104;2023-01-08T00:50:28;99948.34;;;10.18;93.19
3132;BME280;62090;52.330;9.104;2023-01-08T00:52:58;99948.22;;;10.11;93.01
3132;BME280;62090;52.330;9.104;2023-01-08T00:55:28;99951.81;;;10.24;93.33
3132;BME280;62090;52.330;9.104;2023-01-08T00:57:57;99868.88;;;9.77;93.59
3132;BME280;62090;52.330;9.104;2023-01-08T01:00:27;99904.81;;;10.02;93.11
3132;BME280;62090;52.330;9.104;2023-01-08T01:02:59;99911.84;;;10.19;93.25
3132;BME280;62090;52.330;9.104;2023-01-08T01:05:29;99927.34;;;10.37;93.17
3132;BME280;62090;52.330;9.104;2023-01-08T01:07:59;99926.47;;;10.33;93.23
3132;BME280;62090;52.330;9.104;2023-01-08T01:10:28;99904.19;;;10.17;92.64
3132;BME280;62090;52.330;9.104;2023-01-08T01:12:58;99939.41;;;10.50;91.98
3132;BME280;62090;52.330;9.104;2023-01-08T01:15:28;99900.28;;;10.45;91.67
3132;BME280;62090;52.330;9.104;2023-01-08T01:18:00;99906.19;;;10.42;90.87
3132;BME280;62090;52.330;9.104;2023-01-08T01:20:30;99881.47;;;10.34;90.85
3132;BME280;62090;52.330;9.104;2023-01-08T01:23:00;99902.00;;;10.46;90.98
3132;BME280;62090;52.330;9.104;2023-01-08T01:25:29;99920.78;;;10.55;91.14
3132;BME280;62090;52.330;9.104;2023-01-08T01:27:59;99929.38;;;10.65;91.43
3132;BME280;62090;52.330;9.104;2023-01-08T01:30:29;99899.41;;;10.41;90.76
3132;BME280;62090;52.330;9.104;2023-01-08T01:33:01;99924.28;;;10.65;90.56
3132;BME280;62090;52.330;9.104;2023-01-08T01:35:31;99798.63;;;9.91;91.12
3132;BME280;62090;52.330;9.104;2023-01-08T01:38:00;99912.34;;;10.61;91.26
3132;BME280;62090;52.330;9.104;2023-01-08T01:40:30;99928.63;;;10.74;91.10
3132;BME280;62090;52.330;9.104;2023-01-08T01:43:00;99923.53;;;10.72;91.25
3132;BME280;62090;52.330;9.104;2023-01-08T01:45:29;99925.13;;;10.63;91.85
3132;BME280;62090;52.330;9.104;2023-01-08T01:48:07;99911.44;;;10.57;91.61
3132;BME280;62090;52.330;9.104;2023-01-08T01:50:42;99931.03;;;10.60;91.84
3132;BME280;62090;52.330;9.104;2023-01-08T01:53:17;99929.38;;;10.65;91.94
3132;BME280;62090;52.330;9.104;2023-01-08T01:55:48;99931.94;;;10.65;91.82
3132;BME280;62090;52.330;9.104;2023-01-08T01:58:23;99931.19;;;10.75;91.62
3132;BME280;62090;52.330;9.104;2023-01-08T02:00:55;99922.63;;;10.70;91.57
3132;BME280;62090;52.330;9.104;2023-01-08T02:03:30;99919.31;;;10.77;91.61
3132;BME280;62090;52.330;9.104;2023-01-08T02:06:09;99928.66;;;10.77;91.49
3132;BME280;62090;52.330;9.104;2023-01-08T02:08:50;99921.97;;;10.86;91.66
3132;BME280;62090;52.330;9.104;2023-01-08T02:11:26;99908.13;;;10.65;91.52
3132;BME280;62090;52.330;9.104;2023-01-08T02:14:01;99924.38;;;10.74;91.36
3132;BME280;62090;52.330;9.104;2023-01-08T02:16:38;99908.19;;;10.69;91.44
3132;BME280;62090;52.330;9.104;2023-01-08T02:19:21;99895.47;;;10.71;90.94
3132;BME280;62090;52.330;9.104;2023-01-08T02:22:04;99902.25;;;10.70;91.51
3132;BME280;62090;52.330;9.104;2023-01-08T02:24:45;99905.78;;;10.81;91.11
3132;BME280;62090;52.330;9.104;2023-01-08T02:27:24;99924.69;;;11.06;91.47
3132;BME280;62090;52.330;9.104;2023-01-08T02:29:57;99922.06;;;10.94;91.42
3132;BME280;62090;52.330;9.104;2023-01-08T02:32:31;99921.25;;;11.02;91.12
3132;BME280;62090;52.330;9.104;2023-01-08T02:35:01;99914.47;;;11.03;91.45
3132;BME280;62090;52.330;9.104;2023-01-08T02:37:31;99895.63;;;10.87;91.62
3132;BME280;62090;52.330;9.104;2023-01-08T02:40:14;99840.09;;;10.51;90.78
3132;BME280;62090;52.330;9.104;2023-01-08T02:42:54;99893.91;;;10.83;91.12
3132;BME280;62090;52.330;9.104;2023-01-08T02:45:35;99899.22;;;11.08;90.63
3132;BME280;62090;52.330;9.104;2023-01-08T02:48:11;99910.34;;;11.14;90.56
3132;BME280;62090;52.330;9.104;2023-01-08T02:50:44;99907.81;;;11.19;90.23
3132;BME280;62090;52.330;9.104;2023-01-08T02:53:18;99804.38;;;10.48;91.49
3132;BME280;62090;52.330;9.104;2023-01-08T02:55:50;99844.47;;;10.66;91.20
3132;BME280;62090;52.330;9.104;2023-01-08T02:58:24;99843.75;;;10.78;91.23
3132;BME280;62090;52.330;9.104;2023-01-08T03:00:56;99887.34;;;11.10;90.89
3132;BME280;62090;52.330;9.104;2023-01-08T03:03:28;99910.41;;;11.25;90.72
3132;BME280;62090;52.330;9.104;2023-01-08T03:06:02;99911.34;;;11.31;90.49
3132;BME280;62090;52.330;9.104;2023-01-08T03:08:35;99906.22;;;11.30;90.77
3132;BME280;62090;52.330;9.104;2023-01-08T03:11:09;99905.38;;;11.32;90.38
3132;BME280;62090;52.330;9.104;2023-01-08T03:13:46;99907.94;;;11.31;90.31
3132;BME280;62090;52.330;9.104;2023-01-08T03:16:22;99842.22;;;11.01;91.04
3132;BME280;62090;52.330;9.104;2023-01-08T03:18:58;99894.34;;;11.35;90.69
3132;BME280;62090;52.330;9.104;2023-01-08T03:21:30;99772.25;;;10.64;90.90
3132;BME280;62090;52.330;9.104;2023-01-08T03:24:03;99873.00;;;11.21;91.13
3132;BME280;62090;52.330;9.104;2023-01-08T03:26:36;99894.31;;;11.30;90.98
3132;BME280;62090;52.330;9.104;2023-01-08T03:29:13;99859.31;;;11.16;91.07
3132;BME280;62090;52.330;9.104;2023-01-08T03:31:45;99876.41;;;11.23;91.19
3132;BME280;62090;52.330;9.104;2023-01-08T03:34:19;99892.66;;;11.37;91.01
3132;BME280;62090;52.330;9.104;2023-01-08T03:36:51;99837.25;;;11.15;91.04
3132;BME280;62090;52.330;9.104;2023-01-08T03:39:27;99870.50;;;11.33;91.17
3132;BME280;62090;52.330;9.104;2023-01-08T03:42:01;99866.19;;;11.23;91.01
3132;BME280;62090;52.330;9.104;2023-01-08T03:44:35;99873.88;;;11.27;91.08
3132;BME280;62090;52.330;9.104;2023-01-08T03:47:07;99854.31;;;11.23;91.06
3132;BME280;62090;52.330;9.104;2023-01-08T03:49:39;99854.41;;;11.38;90.27
3132;BME280;62090;52.330;9.104;2023-01-08T03:52:20;99866.38;;;11.46;90.26
3132;BME280;62090;52.330;9.104;2023-01-08T03:54:50;99816.81;;;11.12;90.78
3132;BME280;62090;52.330;9.104;2023-01-08T03:57:20;99795.44;;;10.94;90.84
3132;BME280;62090;52.330;9.104;2023-01-08T03:59:53;99846.72;;;11.37;90.52
3132;BME280;62090;52.330;9.104;2023-01-08T04:02:22;99843.28;;;11.29;90.49
3132;BME280;62090;52.330;9.104;2023-01-08T04:04:52;99815.16;;;11.17;90.92
3132;BME280;62090;52.330;9.104;2023-01-08T04:07:22;99817.72;;;11.21;90.98
3132;BME280;62090;52.330;9.104;2023-01-08T04:09:52;99803.25;;;11.14;91.39
3132;BME280;62090;52.330;9.104;2023-01-08T04:12:21;99777.63;;;11.00;91.21
3132;BME280;62090;52.330;9.104;2023-01-08T04:14:54;99807.53;;;11.21;91.34
3132;BME280;62090;52.330;9.104;2023-01-08T04:17:24;99814.41;;;11.31;91.20
3132;BME280;62090;52.330;9.104;2023-01-08T04:19:54;99790.47;;;11.16;91.10
3132;BME280;62090;52.330;9.104;2023-01-08T04:22:24;99833.94;;;11.28;91.40
3132;BME280;62090;52.330;9.104;2023-01-08T04:24:53;99810.16;;;11.32;91.24
3132;BME280;62090;52.330;9.104;2023-01-08T04:27:23;99823.81;;;11.43;91.35
3132;BME280;62090;52.330;9.104;2023-01-08T04:29:55;99744.41;;;10.85;91.18
3132;BME280;62090;52.330;9.104;2023-01-08T04:32:25;99818.66;;;11.34;91.64
3132;BME280;62090;52.330;9.104;2023-01-08T04:34:55;99808.34;;;11.16;92.00
3132;BME280;62090;52.330;9.104;2023-01-08T04:37:24;99813.50;;;11.20;92.25
3132;BME280;62090;52.330;9.104;2023-01-08T04:39:54;99819.44;;;11.21;92.22
3132;BME280;62090;52.330;9.104;2023-01-08T04:42:24;99818.53;;;11.16;92.57
3132;BME280;62090;52.330;9.104;2023-01-08T04:44:56;99819.34;;;11.09;92.93
3132;BME280;62090;52.330;9.104;2023-01-08T04:47:25;99820.25;;;11.15;92.97
3132;BME280;62090;52.330;9.104;2023-01-08T04:49:55;99805.78;;;11.13;92.69
3132;BME280;62090;52.330;9.104;2023-01-08T04:52:26;99793.00;;;11.11;92.90
3132;BME280;62090;52.330;9.104;2023-01-08T04:54:56;99802.38;;;11.14;92.32
3132;BME280;62090;52.330;9.104;2023-01-08T04:57:26;99780.28;;;11.10;92.65
3132;BME280;62090;52.330;9.104;2023-01-08T04:59:58;99694.94;;;10.56;92.54
3132;BME280;62090;52.330;9.104;2023-01-08T05:02:28;99783.63;;;11.07;92.52
3132;BME280;62090;52.330;9.104;2023-01-08T05:04:58;99773.41;;;10.99;92.82
3132;BME280;62090;52.330;9.104;2023-01-08T05:07:28;99768.16;;;10.84;93.27
3132;BME280;62090;52.330;9.104;2023-01-08T05:09:58;99794.66;;;11.01;93.55
3132;BME280;62090;52.330;9.104;2023-01-08T05:12:27;99780.19;;;10.97;93.49
3132;BME280;62090;52.330;9.104;2023-01-08T05:14:59;99683.00;;;10.49;93.42
3132;BME280;62090;52.330;9.104;2023-01-08T05:17:29;99740.06;;;10.74;94.00
3132;BME280;62090;52.330;9.104;2023-01-08T05:19:59;99773.31;;;10.87;94.33
3132;BME280;62090;52.330;9.104;2023-01-08T05:22:29;99759.56;;;10.70;94.64
3132;BME280;62090;52.330;9.104;2023-01-08T05:25:01;99785.09;;;10.76;95.20
3132;BME280;62090;52.330;9.104;2023-01-08T05:27:31;99773.28;;;10.84;95.01
3132;BME280;62090;52.330;9.104;2023-01-08T05:30:04;99739.13;;;10.61;95.22
3132;BME280;62090;52.330;9.104;2023-01-08T05:32:34;99697.34;;;10.36;95.38
3132;BME280;62090;52.330;9.104;2023-01-08T05:35:05;99786.81;;;10.79;95.36
3132;BME280;62090;52.330;9.104;2023-01-08T05:37:35;99762.06;;;10.61;95.51
3132;BME280;62090;52.330;9.104;2023-01-08T05:40:06;99768.06;;;10.69;96.32
3132;BME280;62090;52.330;9.104;2023-01-08T05:42:36;99751.66;;;10.38;97.05
3132;BME280;62090;52.330;9.104;2023-01-08T05:45:09;99784.09;;;10.59;98.02
3132;BME280;62090;52.330;9.104;2023-01-08T05:47:39;99781.53;;;10.57;97.81
3132;BME280;62090;52.330;9.104;2023-01-08T05:50:09;99787.53;;;10.64;97.98
3132;BME280;62090;52.330;9.104;2023-01-08T05:52:38;99790.91;;;10.60;98.21
3132;BME280;62090;52.330;9.104;2023-01-08T05:55:08;99774.75;;;10.58;98.26
3132;BME280;62090;52.330;9.104;2023-01-08T05:57:38;99749.13;;;10.40;98.40
3132;BME280;62090;52.330;9.104;2023-01-08T06:00:12;99780.78;;;10.66;98.25
3132;BME280;62090;52.330;9.104;2023-01-08T06:02:45;99778.09;;;10.52;98.74
3132;BME280;62090;52.330;9.104;2023-01-08T06:05:15;99778.09;;;10.49;98.69
3132;BME280;62090;52.330;9.104;2023-01-08T06:07:44;99741.41;;;10.32;98.37
3132;BME280;62090;52.330;9.104;2023-01-08T06:10:14;99776.44;;;10.57;98.12
3132;BME280;62090;52.330;9.104;2023-01-08T06:12:44;99725.19;;;10.21;98.63
3132;BME280;62090;52.330;9.104;2023-01-08T06:15:17;99774.66;;;10.46;98.39
3132;BME280;62090;52.330;9.104;2023-01-08T06:17:47;99747.38;;;10.33;98.35
3132;BME280;62090;52.330;9.104;2023-01-08T06:20:17;99714.88;;;10.10;98.99
3132;BME280;62090;52.330;9.104;2023-01-08T06:22:46;99778.94;;;10.53;99.11
3132;BME280;62090;52.330;9.104;2023-01-08T06:25:16;99769.69;;;10.61;99.62
3132;BME280;62090;52.330;9.104;2023-01-08T06:27:49;99779.03;;;10.64;100.00
3132;BME280;62090;52.330;9.104;2023-01-08T06:30:22;99772.28;;;10.63;100.00
3132;BME280;62090;52.330;9.104;2023-01-08T06:32:54;99752.59;;;10.48;100.00
3132;BME280;62090;52.330;9.104;2023-01-08T06:35:24;99768.81;;;10.56;100.00
3132;BME280;62090;52.330;9.104;2023-01-08T06:37:54;99781.53;;;10.54;100.00
3132;BME280;62090;52.330;9.104;2023-01-08T06:40:24;99782.34;;;10.50;100.00
3132;BME280;62090;52.330;9.104;2023-01-08T06:42:54;99740.47;;;10.20;100.00
3132;BME280;62090;52.330;9.104;2023-01-08T06:45:26;99781.44;;;10.47;100.00
3132;BME280;62090;52.330;9.104;2023-01-08T06:47:59;99734.38;;;10.08;100.00
3132;BME280;62090;52.330;9.104;2023-01-08T06:50:30;99771.19;;;10.36;100.00
3132;BME280;62090;52.330;9.104;2023-01-08T06:53:00;99783.13;;;10.43;100.00
3132;BME280;62090;52.330;9.104;2023-01-08T06:55:30;99740.41;;;10.16;100.00
3132;BME280;62090;52.330;9.104;2023-01-08T06:58:00;99787.47;;;10.52;100.00
3132;BME280;62090;52.330;9.104;2023-01-08T07:00:32;99784.91;;;10.52;100.00
3132;BME280;62090;52.330;9.104;2023-01-08T07:03:02;99617.53;;;9.47;100.00
3132;BME280;62090;52.330;9.104;2023-01-08T07:05:32;99785.75;;;10.51;100.00
3132;BME280;62090;52.330;9.104;2023-01-08T07:08:02;99758.41;;;10.33;100.00
3132;BME280;62090;52.330;9.104;2023-01-08T07:10:33;99724.22;;;10.11;100.00
3132;BME280;62090;52.330;9.104;2023-01-08T07:13:03;99721.56;;;10.01;100.00
3132;BME280;62090;52.330;9.104;2023-01-08T07:15:37;99777.97;;;10.36;100.00
3132;BME280;62090;52.330;9.104;2023-01-08T07:18:08;99766.81;;;10.25;100.00
3132;BME280;62090;52.330;9.104;2023-01-08T07:20:39;99785.69;;;10.45;100.00
3132;BME280;62090;52.330;9.104;2023-01-08T07:23:11;99723.97;;;9.89;100.00
3132;BME280;62090;52.330;9.104;2023-01-08T07:25:41;99793.19;;;10.30;100.00
3132;BME280;62090;52.330;9.104;2023-01-08T07:28:11;99721.50;;;9.93;100.00
3132;BME280;62090;52.330;9.104;2023-01-08T07:30:43;99742.16;;;10.21;100.00
3132;BME280;62090;52.330;9.104;2023-01-08T07:33:13;99783.06;;;10.39;100.00
3132;BME280;62090;52.330;9.104;2023-01-08T07:35:43;99774.56;;;10.38;100.00
3132;BME280;62090;52.330;9.104;2023-01-08T07:38:12;99748.13;;;10.24;100.00
3132;BME280;62090;52.330;9.104;2023-01-08T07:40:42;99731.91;;;10.14;100.00
3132;BME280;62090;52.330;9.104;2023-01-08T07:43:12;99694.28;;;9.89;100.00
3132;BME280;62090;52.330;9.104;2023-01-08T07:45:44;99773.72;;;10.36;100.00
3132;BME280;62090;52.330;9.104;2023-01-08T07:48:14;99776.31;;;10.44;100.00
3132;BME280;62090;52.330;9.104;2023-01-08T07:50:44;99749.91;;;10.30;100.00
3132;BME280;62090;52.330;9.104;2023-01-08T07:53:13;99778.03;;;10.45;100.00
3132;BME280;62090;52.330;9.104;2023-01-08T07:55:44;99723.53;;;10.25;100.00
3132;BME280;62090;52.330;9.104;2023-01-08T07:58:13;99794.34;;;10.62;100.00
3132;BME280;62090;52.330;9.104;2023-01-08T08:00:46;99763.59;;;10.47;100.00
3132;BME280;62090;52.330;9.104;2023-01-08T08:03:15;99793.47;;;10.60;100.00
3132;BME280;62090;52.330;9.104;2023-01-08T08:05:45;99784.94;;;10.58;100.00
3132;BME280;62090;52.330;9.104;2023-01-08T08:08:15;99785.84;;;10.63;100.00
3132;BME280;62090;52.330;9.104;2023-01-08T08:10:45;99784.97;;;10.59;100.00
3132;BME280;62090;52.330;9.104;2023-01-08T08:13:15;99761.19;;;10.59;100.00
3132;BME280;62090;52.330;9.104;2023-01-08T08:15:48;99782.63;;;10.85;100.00
3132;BME280;62090;52.330;9.104;2023-01-08T08:18:18;99783.22;;;10.54;100.00
3132;BME280;62090;52.330;9.104;2023-01-08T08:20:47;99767.91;;;10.52;100.00
3132;BME280;62090;52.330;9.104;2023-01-08T08:23:17;99790.88;;;10.58;100.00
3132;BME280;62090;52.330;9.104;2023-01-08T08:25:48;99788.34;;;10.58;100.00
3132;BME280;62090;52.330;9.104;2023-01-08T08:28:19;99747.38;;;10.33;100.00
3132;BME280;62090;52.330;9.104;2023-01-08T08:30:51;99733.81;;;10.37;100.00
3132;BME280;62090;52.330;9.104;2023-01-08T08:33:23;99782.47;;;10.63;100.00
3132;BME280;62090;52.330;9.104;2023-01-08T08:35:55;99752.56;;;10.45;100.00
3132;BME280;62090;52.330;9.104;2023-01-08T08:38:25;99721.84;;;10.25;100.00
3132;BME280;62090;52.330;9.104;2023-01-08T08:40:55;99766.34;;;10.68;100.00
3132;BME280;62090;52.330;9.104;2023-01-08T08:43:26;99735.69;;;10.56;100.00
3132;BME280;62090;52.330;9.104;2023-01-08T08:45:58;99763.00;;;10.75;100.00
3132;BME280;62090;52.330;9.104;2023-01-08T08:48:28;99748.53;;;10.70;100.00
3132;BME280;62090;52.330;9.104;2023-01-08T08:50:58;99772.47;;;10.88;100.00
3132;BME280;62090;52.330;9.104;2023-01-08T08:53:29;99631.81;;;10.17;100.00
3132;BME280;62090;52.330;9.104;2023-01-08T08:56:05;99759.75;;;10.91;99.67
3132;BME280;62090;52.330;9.104;2023-01-08T08:58:35;99634.41;;;10.20;100.00
3132;BME280;62090;52.330;9.104;2023-01-08T09:01:10;99737.53;;;10.72;100.00
3132;BME280;62090;52.330;9.104;2023-01-08T09:03:41;99739.25;;;10.79;100.00
3132;BME280;62090;52.330;9.104;2023-01-08T09:06:13;99764.88;;;11.00;100.00
3132;BME280;62090;52.330;9.104;2023-01-08T09:08:43;99694.13;;;10.60;99.64
3132;BME280;62090;52.330;9.104;2023-01-08T09:11:13;99681.28;;;10.48;99.02
3132;BME280;62090;52.330;9.104;2023-01-08T09:13:42;99750.34;;;10.86;99.59
3132;BME280;62090;52.330;9.104;2023-01-08T09:16:15;99710.31;;;10.67;100.00
3132;BME280;62090;52.330;9.104;2023-01-08T09:18:46;99736.72;;;10.81;100.00
3132;BME280;62090;52.330;9.104;2023-01-08T09:21:16;99762.34;;;10.99;100.00
3132;BME280;62090;52.330;9.104;2023-01-08T09:23:47;99761.53;;;11.05;99.82
3132;BME280;62090;52.330;9.104;2023-01-08T09:26:23;99745.38;;;11.02;99.31
3132;BME280;62090;52.330;9.104;2023-01-08T09:28:57;99636.94;;;10.22;99.10
3132;BME280;62090;52.330;9.104;2023-01-08T09:31:30;99755.59;;;11.07;98.70
3132;BME280;62090;52.330;9.104;2023-01-08T09:34:01;99701.97;;;10.90;98.57
3132;BME280;62090;52.330;9.104;2023-01-08T09:36:31;99753.13;;;11.18;97.64
3132;BME280;62090;52.330;9.104;2023-01-08T09:39:00;99734.38;;;11.10;97.59
3132;BME280;62090;52.330;9.104;2023-01-08T09:41:35;99761.69;;;11.26;96.90
3132;BME280;62090;52.330;9.104;2023-01-08T09:44:14;99727.53;;;10.99;96.94
3132;BME280;62090;52.330;9.104;2023-01-08T09:46:47;99638.81;;;10.44;96.81
3132;BME280;62090;52.330;9.104;2023-01-08T09:49:21;99758.94;;;10.97;98.05
3132;BME280;62090;52.330;9.104;2023-01-08T09:51:55;99745.25;;;10.83;99.71
3132;BME280;62090;52.330;9.104;2023-01-08T09:54:28;99674.34;;;10.32;100.00
3132;BME280;62090;52.330;9.104;2023-01-08T09:56:58;99715.66;;;10.03;100.00
3132;BME280;62090;52.330;9.104;2023-01-08T09:59:29;99639.63;;;9.49;100.00
3132;BME280;62090;52.330;9.104;2023-01-08T10:02:13;99785.72;;;10.46;100.00
3132;BME280;62090;52.330;9.104;2023-01-08T10:04:52;99718.13;;;9.97;100.00
3132;BME280;62090;52.330;9.104;2023-01-08T10:07:25;99788.16;;;10.36;100.00
3132;BME280;62090;52.330;9.104;2023-01-08T10:10:00;99718.22;;;10.06;100.00
3132;BME280;62090;52.330;9.104;2023-01-08T10:12:32;99740.69;;;10.47;100.00
3132;BME280;62090;52.330;9.104;2023-01-08T10:15:10;99713.13;;;10.03;100.00
3132;BME280;62090;52.330;9.104;2023-01-08T10:17:47;99745.72;;;10.36;100.00
3132;BME280;62090;52.330;9.104;2023-01-08T10:20:23;99725.16;;;10.18;100.00
3132;BME280;62090;52.330;9.104;2023-01-08T10:22:55;99737.88;;;10.16;100.00
3132;BME280;62090;52.330;9.104;2023-01-08T10:25:51;99641.66;;;9.82;100.00
3132;BME280;62090;52.330;9.104;2023-01-08T10:28:24;99773.00;;;10.51;100.00
3132;BME280;62090;52.330;9.104;2023-01-08T10:30:59;99672.47;;;10.12;100.00
3132;BME280;62090;52.330;9.104;2023-01-08T10:33:41;99689.69;;;10.35;100.00
3132;BME280;62090;52.330;9.104;2023-01-08T10:36:14;99667.53;;;10.25;100.00
3132;BME280;62090;52.330;9.104;2023-01-08T10:38:48;99746.81;;;10.66;100.00
3132;BME280;62090;52.330;9.104;2023-01-08T10:41:20;99718.34;;;10.17;100.00
3132;BME280;62090;52.330;9.104;2023-01-08T10:43:54;99706.44;;;10.14;100.00
3132;BME280;62090;52.330;9.104;2023-01-08T10:46:31;99712.41;;;10.16;100.00
3132;BME280;62090;52.330;9.104;2023-01-08T10:49:05;99721.75;;;10.18;100.00
3132;BME280;62090;52.330;9.104;2023-01-08T10:51:49;99714.28;;;10.34;100.00
3132;BME280;62090;52.330;9.104;2023-01-08T10:54:27;99681.00;;;10.14;100.00
3132;BME280;62090;52.330;9.104;2023-01-08T10:56:59;99647.72;;;9.93;100.00
3132;BME280;62090;52.330;9.104;2023-01-08T10:59:29;99668.19;;;10.08;100.00
3132;BME280;62090;52.330;9.104;2023-01-08T11:01:59;99681.97;;;10.29;100.00
3132;BME280;62090;52.330;9.104;2023-01-08T11:04:36;99712.75;;;10.54;100.00
3132;BME280;62090;52.330;9.104;2023-01-08T11:07:06;99720.53;;;10.71;100.00
3132;BME280;62090;52.330;9.104;2023-01-08T11:09:40;99714.66;;;10.81;100.00
3132;BME280;62090;52.330;9.104;2023-01-08T11:12:27;99705.25;;;10.74;99.85
3132;BME280;62090;52.330;9.104;2023-01-08T11:15:07;99707.00;;;10.84;99.09
3132;BME280;62090;52.330;9.104;2023-01-08T11:18:03;99512.66;;;9.67;97.14
3132;BME280;62090;52.330;9.104;2023-01-08T11:20:37;99682.41;;;10.83;96.25
3132;BME280;62090;52.330;9.104;2023-01-08T11:23:14;99670.44;;;10.75;95.78
3132;BME280;62090;52.330;9.104;2023-01-08T11:25:50;99680.66;;;10.79;92.52
3132;BME280;62090;52.330;9.104;2023-01-08T11:28:37;99662.75;;;10.67;92.40
3132;BME280;62090;52.330;9.104;2023-01-08T11:31:16;99685.00;;;10.95;90.69
3132;BME280;62090;52.330;9.104;2023-01-08T11:33:49;99677.31;;;10.86;88.68
3132;BME280;62090;52.330;9.104;2023-01-08T11:36:32;99663.69;;;10.84;87.43
3132;BME280;62090;52.330;9.104;2023-01-08T11:39:06;99665.41;;;10.87;87.52
3132;BME280;62090;52.330;9.104;2023-01-08T11:41:59;99652.66;;;10.85;86.01
3132;BME280;62090;52.330;9.104;2023-01-08T11:44:39;99654.31;;;10.80;85.68
3132;BME280;62090;52.330;9.104;2023-01-08T11:47:13;99609.19;;;10.55;85.99
3132;BME280;62090;52.330;9.104;2023-01-08T11:53:04;99566.63;;;10.39;85.97
3132;BME280;62090;52.330;9.104;2023-01-08T11:55:44;99629.72;;;10.85;86.58
3132;BME280;62090;52.330;9.104;2023-01-08T11:58:23;99599.09;;;10.72;85.39
3132;BME280;62090;52.330;9.104;2023-01-08T12:01:27;99622.09;;;10.87;84.71
3132;BME280;62090;52.330;9.104;2023-01-08T12:04:19;99639.19;;;11.11;85.21
3132;BME280;62090;52.330;9.104;2023-01-08T12:06:59;99540.44;;;10.64;85.73
3132;BME280;62090;52.330;9.104;2023-01-08T12:09:39;99627.38;;;11.25;84.57
3132;BME280;62090;52.330;9.104;2023-01-08T12:12:23;99555.88;;;10.93;84.21
3132;BME280;62090;52.330;9.104;2023-01-08T12:15:06;99618.03;;;11.33;83.11
3132;BME280;62090;52.330;9.104;2023-01-08T12:17:59;99361.81;;;9.82;83.48
3132;BME280;62090;52.330;9.104;2023-01-08T12:20:42;99620.56;;;11.27;83.83
3132;BME280;62090;52.330;9.104;2023-01-08T12:23:24;99608.69;;;11.30;84.80
3132;BME280;62090;52.330;9.104;2023-01-08T12:26:16;99533.72;;;10.84;84.41
3132;BME280;62090;52.330;9.104;2023-01-08T12:29:06;99612.03;;;11.19;84.38
3132;BME280;62090;52.330;9.104;2023-01-08T12:31:57;99582.19;;;10.90;85.22
3132;BME280;62090;52.330;9.104;2023-01-08T12:34:40;99601.78;;;10.99;85.40
3132;BME280;62090;52.330;9.104;2023-01-08T12:37:23;99554.13;;;10.78;84.89
3132;BME280;62090;52.330;9.104;2023-01-08T12:39:57;99566.06;;;11.00;85.75
3132;BME280;62090;52.330;9.104;2023-01-08T12:42:40;99582.22;;;11.01;84.33
3132;BME280;62090;52.330;9.104;2023-01-08T12:45:24;99589.84;;;10.96;85.07
3132;BME280;62090;52.330;9.104;2023-01-08T12:48:01;99593.38;;;11.26;85.20
3132;BME280;62090;52.330;9.104;2023-01-08T12:50:39;99603.56;;;11.29;84.34
3132;BME280;62090;52.330;9.104;2023-01-08T12:53:17;99544.03;;;11.10;84.21
3132;BME280;62090;52.330;9.104;2023-01-08T12:55:57;99580.66;;;11.44;84.59
3132;BME280;62090;52.330;9.104;2023-01-08T12:58:41;99579.81;;;11.45;82.37
3132;BME280;62090;52.330;9.104;2023-01-08T13:01:24;99567.03;;;11.43;82.75
3132;BME280;62090;52.330;9.104;2023-01-08T13:03:58;99553.47;;;11.46;84.01
3132;BME280;62090;52.330;9.104;2023-01-08T13:06:31;99563.66;;;11.54;83.99
3132;BME280;62090;52.330;9.104;2023-01-08T13:09:01;99522.81;;;11.34;82.75
3132;BME280;62090;52.330;9.104;2023-01-08T13:11:37;99561.13;;;11.66;81.94
3132;BME280;62090;52.330;9.104;2023-01-08T13:14:12;99531.31;;;11.42;82.05
3132;BME280;62090;52.330;9.104;2023-01-08T13:16:46;99560.28;;;11.62;80.83
3132;BME280;62090;52.330;9.104;2023-01-08T13:19:24;99442.03;;;10.93;81.37
3132;BME280;62090;52.330;9.104;2023-01-08T13:21:56;99528.78;;;11.34;82.23
3132;BME280;62090;52.330;9.104;2023-01-08T13:24:31;99521.13;;;11.33;82.07
3132;BME280;62090;52.330;9.104;2023-01-08T13:27:10;99386.72;;;10.53;81.95
3132;BME280;62090;52.330;9.104;2023-01-08T13:29:44;99543.28;;;11.52;82.53
3132;BME280;62090;52.330;9.104;2023-01-08T13:32:40;99487.97;;;11.24;82.44
3132;BME280;62090;52.330;9.104;2023-01-08T13:35:23;99421.66;;;10.89;82.75
3132;BME280;62090;52.330;9.104;2023-01-08T13:38:10;99495.63;;;11.33;83.29
3132;BME280;62090;52.330;9.104;2023-01-08T13:40:54;99493.06;;;11.39;82.51
3132;BME280;62090;52.330;9.104;2023-01-08T13:43:28;99470.97;;;11.27;83.02